sensor_id;sensor_type;location;lat;lon;timestamp;P1;durP1;ratioP1;P2;durP2;ratioP2
57047;SDS011;42934;54.294;18.598;2023-11-19T00:00:37;31.45;;;16.23;;
57047;SDS011;42934;54.294;18.598;2023-11-19T00:03:27;28.85;;;15.98;;
57047;SDS011;42934;54.294;18.598;2023-11-19T00:05:56;28.85;;;15.18;;
57047;SDS011;42934;54.294;18.598;2023-11-19T00:08:27;29.45;;;15.40;;
57047;SDS011;42934;54.294;18.598;2023-11-19T00:10:56;30.00;;;15.75;;
57047;SDS011;42934;54.294;18.598;2023-11-19T00:13:25;30.45;;;16.25;;
57047;SDS011;42934;54.294;18.598;2023-11-19T00:15:54;32.73;;;16.73;;
57047;SDS011;42934;54.294;18.598;2023-11-19T00:18:24;27.42;;;16.27;;
57047;SDS011;42934;54.294;18.598;2023-11-19T00:20:53;28.97;;;16.60;;
57047;SDS011;42934;54.294;18.598;2023-11-19T00:23:22;31.15;;;17.48;;
57047;SDS011;42934;54.294;18.598;2023-11-19T00:25:53;27.95;;;15.50;;
57047;SDS011;42934;54.294;18.598;2023-11-19T00:28:22;30.02;;;16.08;;
57047;SDS011;42934;54.294;18.598;2023-11-19T00:30:52;28.83;;;15.52;;
57047;SDS011;42934;54.294;18.598;2023-11-19T00:33:21;31.58;;;15.07;;
57047;SDS011;42934;54.294;18.598;2023-11-19T00:35:50;32.20;;;16.10;;
57047;SDS011;42934;54.294;18.598;2023-11-19T00:38:19;28.08;;;15.10;;
57047;SDS011;42934;54.294;18.598;2023-11-19T00:40:48;30.83;;;17.45;;
57047;SDS011;42934;54.294;18.598;2023-11-19T00:43:19;29.77;;;15.80;;
57047;SDS011;42934;54.294;18.598;2023-11-19T00:45:49;30.48;;;15.85;;
57047;SDS011;42934;54.294;18.598;2023-11-19T00:48:18;29.77;;;15.68;;
57047;SDS011;42934;54.294;18.598;2023-11-19T00:50:47;28.58;;;14.90;;
57047;SDS011;42934;54.294;18.598;2023-11-19T00:53:16;30.55;;;15.50;;
57047;SDS011;42934;54.294;18.598;2023-11-19T00:55:46;24.83;;;14.00;;
57047;SDS011;42934;54.294;18.598;2023-11-19T00:58:15;29.40;;;15.60;;
57047;SDS011;42934;54.294;18.598;2023-11-19T01:00:46;32.08;;;14.98;;
57047;SDS011;42934;54.294;18.598;2023-11-19T01:03:15;28.38;;;14.68;;
57047;SDS011;42934;54.294;18.598;2023-11-19T01:05:45;29.90;;;16.73;;
57047;SDS011;42934;54.294;18.598;2023-11-19T01:08:15;31.35;;;16.05;;
57047;SDS011;42934;54.294;18.598;2023-11-19T01:10:44;28.48;;;14.95;;
57047;SDS011;42934;54.294;18.598;2023-11-19T01:13:13;27.77;;;14.70;;
57047;SDS011;42934;54.294;18.598;2023-11-19T01:15:42;29.88;;;15.60;;
57047;SDS011;42934;54.294;18.598;2023-11-19T01:18:13;28.40;;;14.98;;
57047;SDS011;42934;54.294;18.598;2023-11-19T01:20:42;25.10;;;14.18;;
57047;SDS011;42934;54.294;18.598;2023-11-19T01:23:12;29.35;;;15.40;;
57047;SDS011;42934;54.294;18.598;2023-11-19T01:25:41;27.75;;;14.60;;
57047;SDS011;42934;54.294;18.598;2023-11-19T01:28:11;29.55;;;15.65;;
57047;SDS011;42934;54.294;18.598;2023-11-19T01:30:41;23.73;;;14.63;;
57047;SDS011;42934;54.294;18.598;2023-11-19T01:33:10;29.13;;;15.07;;
57047;SDS011;42934;54.294;18.598;2023-11-19T01:35:40;32.70;;;15.98;;
57047;SDS011;42934;54.294;18.598;2023-11-19T01:38:09;30.60;;;15.77;;
57047;SDS011;42934;54.294;18.598;2023-11-19T01:40:39;37.07;;;19.60;;
57047;SDS011;42934;54.294;18.598;2023-11-19T01:43:09;31.27;;;15.50;;
57047;SDS011;42934;54.294;18.598;2023-11-19T01:45:40;30.88;;;15.60;;
57047;SDS011;42934;54.294;18.598;2023-11-19T01:48:10;28.83;;;15.68;;
57047;SDS011;42934;54.294;18.598;2023-11-19T01:50:40;27.40;;;15.13;;
57047;SDS011;42934;54.294;18.598;2023-11-19T01:55:39;27.38;;;14.02;;
57047;SDS011;42934;54.294;18.598;2023-11-19T01:58:08;25.98;;;14.70;;
57047;SDS011;42934;54.294;18.598;2023-11-19T02:00:39;26.77;;;14.75;;
57047;SDS011;42934;54.294;18.598;2023-11-19T02:03:08;29.13;;;14.95;;
57047;SDS011;42934;54.294;18.598;2023-11-19T02:05:40;22.98;;;13.88;;
57047;SDS011;42934;54.294;18.598;2023-11-19T02:08:10;31.75;;;14.63;;
57047;SDS011;42934;54.294;18.598;2023-11-19T02:10:41;26.80;;;14.57;;
57047;SDS011;42934;54.294;18.598;2023-11-19T02:13:10;27.60;;;14.73;;
57047;SDS011;42934;54.294;18.598;2023-11-19T02:15:41;27.40;;;14.63;;
57047;SDS011;42934;54.294;18.598;2023-11-19T02:18:20;24.87;;;14.43;;
57047;SDS011;42934;54.294;18.598;2023-11-19T02:20:52;26.58;;;13.65;;
57047;SDS011;42934;54.294;18.598;2023-11-19T02:23:21;25.83;;;14.20;;
57047;SDS011;42934;54.294;18.598;2023-11-19T02:25:54;26.25;;;14.18;;
57047;SDS011;42934;54.294;18.598;2023-11-19T02:28:36;24.90;;;13.73;;
57047;SDS011;42934;54.294;18.598;2023-11-19T02:31:07;24.45;;;13.93;;
57047;SDS011;42934;54.294;18.598;2023-11-19T02:36:07;25.17;;;13.10;;
57047;SDS011;42934;54.294;18.598;2023-11-19T02:38:36;28.23;;;14.88;;
57047;SDS011;42934;54.294;18.598;2023-11-19T02:41:06;27.83;;;14.83;;
57047;SDS011;42934;54.294;18.598;2023-11-19T02:43:38;27.95;;;15.52;;
57047;SDS011;42934;54.294;18.598;2023-11-19T02:46:07;26.90;;;14.93;;
57047;SDS011;42934;54.294;18.598;2023-11-19T02:48:40;26.30;;;14.23;;
57047;SDS011;42934;54.294;18.598;2023-11-19T02:51:10;26.27;;;14.27;;
57047;SDS011;42934;54.294;18.598;2023-11-19T02:53:39;28.38;;;15.50;;
57047;SDS011;42934;54.294;18.598;2023-11-19T02:56:11;30.08;;;15.02;;
57047;SDS011;42934;54.294;18.598;2023-11-19T02:58:48;26.30;;;15.15;;
57047;SDS011;42934;54.294;18.598;2023-11-19T03:01:21;30.52;;;15.80;;
57047;SDS011;42934;54.294;18.598;2023-11-19T03:03:58;31.90;;;15.30;;
57047;SDS011;42934;54.294;18.598;2023-11-19T03:06:30;28.83;;;15.40;;
57047;SDS011;42934;54.294;18.598;2023-11-19T03:08:59;28.52;;;15.18;;
57047;SDS011;42934;54.294;18.598;2023-11-19T03:11:33;28.60;;;16.23;;
57047;SDS011;42934;54.294;18.598;2023-11-19T03:14:03;29.67;;;15.90;;
57047;SDS011;42934;54.294;18.598;2023-11-19T03:16:33;28.23;;;15.68;;
57047;SDS011;42934;54.294;18.598;2023-11-19T03:19:02;33.05;;;15.93;;
57047;SDS011;42934;54.294;18.598;2023-11-19T03:21:33;27.98;;;16.60;;
57047;SDS011;42934;54.294;18.598;2023-11-19T03:24:04;30.42;;;15.82;;
57047;SDS011;42934;54.294;18.598;2023-11-19T03:26:35;28.70;;;15.48;;
57047;SDS011;42934;54.294;18.598;2023-11-19T03:29:06;27.73;;;15.35;;
57047;SDS011;42934;54.294;18.598;2023-11-19T03:31:35;30.52;;;16.20;;
57047;SDS011;42934;54.294;18.598;2023-11-19T03:34:09;28.92;;;16.27;;
57047;SDS011;42934;54.294;18.598;2023-11-19T03:36:39;31.00;;;16.02;;
57047;SDS011;42934;54.294;18.598;2023-11-19T03:39:09;26.40;;;15.88;;
57047;SDS011;42934;54.294;18.598;2023-11-19T03:41:39;30.13;;;16.33;;
57047;SDS011;42934;54.294;18.598;2023-11-19T03:44:09;30.00;;;15.60;;
57047;SDS011;42934;54.294;18.598;2023-11-19T03:46:39;29.17;;;15.30;;
57047;SDS011;42934;54.294;18.598;2023-11-19T03:49:08;28.10;;;14.60;;
57047;SDS011;42934;54.294;18.598;2023-11-19T03:51:37;25.85;;;14.50;;
57047;SDS011;42934;54.294;18.598;2023-11-19T03:54:07;27.80;;;14.98;;
57047;SDS011;42934;54.294;18.598;2023-11-19T03:56:36;24.85;;;14.10;;
57047;SDS011;42934;54.294;18.598;2023-11-19T03:59:05;27.42;;;14.77;;
57047;SDS011;42934;54.294;18.598;2023-11-19T04:01:38;23.75;;;13.23;;
57047;SDS011;42934;54.294;18.598;2023-11-19T04:06:36;24.02;;;13.15;;
57047;SDS011;42934;54.294;18.598;2023-11-19T04:09:05;24.05;;;13.40;;
57047;SDS011;42934;54.294;18.598;2023-11-19T04:11:35;24.35;;;12.75;;
57047;SDS011;42934;54.294;18.598;2023-11-19T04:14:04;24.85;;;13.38;;
57047;SDS011;42934;54.294;18.598;2023-11-19T04:16:34;23.45;;;13.38;;
57047;SDS011;42934;54.294;18.598;2023-11-19T04:19:04;21.05;;;12.63;;
57047;SDS011;42934;54.294;18.598;2023-11-19T04:21:34;27.02;;;13.50;;
57047;SDS011;42934;54.294;18.598;2023-11-19T04:24:03;22.92;;;12.40;;
57047;SDS011;42934;54.294;18.598;2023-11-19T04:26:33;23.52;;;12.68;;
57047;SDS011;42934;54.294;18.598;2023-11-19T04:29:03;25.92;;;14.18;;
57047;SDS011;42934;54.294;18.598;2023-11-19T04:31:32;22.95;;;12.63;;
57047;SDS011;42934;54.294;18.598;2023-11-19T04:34:02;21.35;;;12.60;;
57047;SDS011;42934;54.294;18.598;2023-11-19T04:36:32;19.27;;;11.50;;
57047;SDS011;42934;54.294;18.598;2023-11-19T04:39:02;20.25;;;12.00;;
57047;SDS011;42934;54.294;18.598;2023-11-19T04:41:35;25.13;;;12.60;;
57047;SDS011;42934;54.294;18.598;2023-11-19T04:44:13;21.88;;;11.70;;
57047;SDS011;42934;54.294;18.598;2023-11-19T04:46:42;22.10;;;12.50;;
57047;SDS011;42934;54.294;18.598;2023-11-19T04:49:12;22.65;;;11.63;;
57047;SDS011;42934;54.294;18.598;2023-11-19T04:51:45;22.65;;;12.07;;
57047;SDS011;42934;54.294;18.598;2023-11-19T04:54:14;23.10;;;12.48;;
57047;SDS011;42934;54.294;18.598;2023-11-19T04:56:45;21.67;;;11.48;;
57047;SDS011;42934;54.294;18.598;2023-11-19T05:01:46;18.85;;;10.52;;
57047;SDS011;42934;54.294;18.598;2023-11-19T05:04:15;22.67;;;11.90;;
57047;SDS011;42934;54.294;18.598;2023-11-19T05:06:47;20.80;;;11.45;;
57047;SDS011;42934;54.294;18.598;2023-11-19T05:11:45;22.58;;;12.43;;
57047;SDS011;42934;54.294;18.598;2023-11-19T05:14:18;22.45;;;12.05;;
57047;SDS011;42934;54.294;18.598;2023-11-19T05:16:48;21.70;;;12.13;;
57047;SDS011;42934;54.294;18.598;2023-11-19T05:19:18;22.65;;;12.07;;
57047;SDS011;42934;54.294;18.598;2023-11-19T05:21:49;23.40;;;11.73;;
57047;SDS011;42934;54.294;18.598;2023-11-19T05:24:19;23.17;;;11.65;;
57047;SDS011;42934;54.294;18.598;2023-11-19T05:26:48;23.65;;;12.38;;
57047;SDS011;42934;54.294;18.598;2023-11-19T05:29:18;24.13;;;12.13;;
57047;SDS011;42934;54.294;18.598;2023-11-19T05:31:47;21.38;;;12.60;;
57047;SDS011;42934;54.294;18.598;2023-11-19T05:34:16;23.73;;;13.02;;
57047;SDS011;42934;54.294;18.598;2023-11-19T05:36:45;23.17;;;12.63;;
57047;SDS011;42934;54.294;18.598;2023-11-19T05:39:16;22.23;;;12.13;;
57047;SDS011;42934;54.294;18.598;2023-11-19T05:41:47;21.33;;;12.35;;
57047;SDS011;42934;54.294;18.598;2023-11-19T05:44:16;24.33;;;11.93;;
57047;SDS011;42934;54.294;18.598;2023-11-19T05:46:46;22.00;;;12.65;;
57047;SDS011;42934;54.294;18.598;2023-11-19T05:49:15;20.73;;;12.43;;
57047;SDS011;42934;54.294;18.598;2023-11-19T05:51:45;23.95;;;12.43;;
57047;SDS011;42934;54.294;18.598;2023-11-19T05:54:14;22.13;;;12.18;;
57047;SDS011;42934;54.294;18.598;2023-11-19T05:56:47;23.10;;;13.10;;
57047;SDS011;42934;54.294;18.598;2023-11-19T05:59:16;21.80;;;12.95;;
57047;SDS011;42934;54.294;18.598;2023-11-19T06:01:45;24.20;;;12.70;;
57047;SDS011;42934;54.294;18.598;2023-11-19T06:04:14;22.52;;;12.45;;
57047;SDS011;42934;54.294;18.598;2023-11-19T06:06:44;25.52;;;12.82;;
57047;SDS011;42934;54.294;18.598;2023-11-19T06:09:13;27.33;;;13.05;;
57047;SDS011;42934;54.294;18.598;2023-11-19T06:11:45;24.10;;;12.73;;
57047;SDS011;42934;54.294;18.598;2023-11-19T06:14:15;23.40;;;12.45;;
57047;SDS011;42934;54.294;18.598;2023-11-19T06:16:45;24.83;;;12.98;;
57047;SDS011;42934;54.294;18.598;2023-11-19T06:19:14;23.95;;;13.13;;
57047;SDS011;42934;54.294;18.598;2023-11-19T06:21:43;24.88;;;13.00;;
57047;SDS011;42934;54.294;18.598;2023-11-19T06:24:13;27.35;;;14.50;;
57047;SDS011;42934;54.294;18.598;2023-11-19T06:26:44;24.27;;;13.73;;
57047;SDS011;42934;54.294;18.598;2023-11-19T06:29:12;26.20;;;13.52;;
57047;SDS011;42934;54.294;18.598;2023-11-19T06:31:45;28.90;;;14.95;;
57047;SDS011;42934;54.294;18.598;2023-11-19T06:34:15;26.23;;;14.60;;
57047;SDS011;42934;54.294;18.598;2023-11-19T06:36:45;25.98;;;14.55;;
57047;SDS011;42934;54.294;18.598;2023-11-19T06:39:16;28.35;;;15.60;;
57047;SDS011;42934;54.294;18.598;2023-11-19T06:41:47;28.92;;;13.15;;
57047;SDS011;42934;54.294;18.598;2023-11-19T06:44:16;25.92;;;14.70;;
57047;SDS011;42934;54.294;18.598;2023-11-19T06:46:45;28.70;;;14.85;;
57047;SDS011;42934;54.294;18.598;2023-11-19T06:51:48;26.30;;;14.25;;
57047;SDS011;42934;54.294;18.598;2023-11-19T06:54:19;26.13;;;13.57;;
57047;SDS011;42934;54.294;18.598;2023-11-19T06:56:48;26.60;;;14.15;;
57047;SDS011;42934;54.294;18.598;2023-11-19T06:59:18;23.55;;;13.38;;
57047;SDS011;42934;54.294;18.598;2023-11-19T07:01:47;25.63;;;13.85;;
57047;SDS011;42934;54.294;18.598;2023-11-19T07:04:16;23.98;;;13.93;;
57047;SDS011;42934;54.294;18.598;2023-11-19T07:06:45;26.70;;;14.32;;
57047;SDS011;42934;54.294;18.598;2023-11-19T07:09:15;27.10;;;13.98;;
57047;SDS011;42934;54.294;18.598;2023-11-19T07:11:47;27.77;;;14.77;;
57047;SDS011;42934;54.294;18.598;2023-11-19T07:14:18;26.45;;;14.70;;
57047;SDS011;42934;54.294;18.598;2023-11-19T07:16:48;26.60;;;14.40;;
57047;SDS011;42934;54.294;18.598;2023-11-19T07:19:18;30.70;;;14.43;;
57047;SDS011;42934;54.294;18.598;2023-11-19T07:21:47;28.13;;;14.80;;
57047;SDS011;42934;54.294;18.598;2023-11-19T07:24:16;29.60;;;15.38;;
57047;SDS011;42934;54.294;18.598;2023-11-19T07:26:47;25.40;;;13.63;;
57047;SDS011;42934;54.294;18.598;2023-11-19T07:29:16;26.90;;;13.45;;
57047;SDS011;42934;54.294;18.598;2023-11-19T07:31:48;23.77;;;13.82;;
57047;SDS011;42934;54.294;18.598;2023-11-19T07:34:17;25.48;;;13.75;;
57047;SDS011;42934;54.294;18.598;2023-11-19T07:36:47;26.33;;;13.98;;
57047;SDS011;42934;54.294;18.598;2023-11-19T07:39:16;26.73;;;13.90;;
57047;SDS011;42934;54.294;18.598;2023-11-19T07:41:49;27.50;;;13.95;;
57047;SDS011;42934;54.294;18.598;2023-11-19T07:44:19;26.58;;;15.18;;
57047;SDS011;42934;54.294;18.598;2023-11-19T07:46:49;22.67;;;13.13;;
57047;SDS011;42934;54.294;18.598;2023-11-19T07:49:18;24.80;;;12.70;;
57047;SDS011;42934;54.294;18.598;2023-11-19T07:51:47;19.00;;;11.97;;
57047;SDS011;42934;54.294;18.598;2023-11-19T07:54:16;19.60;;;11.50;;
57047;SDS011;42934;54.294;18.598;2023-11-19T07:56:49;23.65;;;11.70;;
57047;SDS011;42934;54.294;18.598;2023-11-19T07:59:19;18.98;;;11.02;;
57047;SDS011;42934;54.294;18.598;2023-11-19T08:01:48;21.13;;;11.55;;
57047;SDS011;42934;54.294;18.598;2023-11-19T08:04:17;18.10;;;10.50;;
57047;SDS011;42934;54.294;18.598;2023-11-19T08:06:46;19.27;;;11.47;;
57047;SDS011;42934;54.294;18.598;2023-11-19T08:09:15;23.05;;;11.70;;
57047;SDS011;42934;54.294;18.598;2023-11-19T08:11:45;23.75;;;12.60;;
57047;SDS011;42934;54.294;18.598;2023-11-19T08:14:15;19.38;;;11.18;;
57047;SDS011;42934;54.294;18.598;2023-11-19T08:16:44;19.60;;;10.98;;
57047;SDS011;42934;54.294;18.598;2023-11-19T08:19:13;19.30;;;11.65;;
57047;SDS011;42934;54.294;18.598;2023-11-19T08:21:43;19.98;;;11.05;;
57047;SDS011;42934;54.294;18.598;2023-11-19T08:24:12;17.60;;;9.85;;
57047;SDS011;42934;54.294;18.598;2023-11-19T08:26:41;20.40;;;10.95;;
57047;SDS011;42934;54.294;18.598;2023-11-19T08:29:10;25.92;;;10.90;;
57047;SDS011;42934;54.294;18.598;2023-11-19T08:34:11;23.90;;;11.38;;
57047;SDS011;42934;54.294;18.598;2023-11-19T08:36:40;20.83;;;10.60;;
57047;SDS011;42934;54.294;18.598;2023-11-19T08:39:09;21.63;;;11.63;;
57047;SDS011;42934;54.294;18.598;2023-11-19T08:41:41;21.17;;;11.63;;
57047;SDS011;42934;54.294;18.598;2023-11-19T08:44:10;23.67;;;11.75;;
57047;SDS011;42934;54.294;18.598;2023-11-19T08:46:47;22.03;;;12.07;;
57047;SDS011;42934;54.294;18.598;2023-11-19T08:49:16;21.95;;;11.82;;
57047;SDS011;42934;54.294;18.598;2023-11-19T08:51:46;23.10;;;12.70;;
57047;SDS011;42934;54.294;18.598;2023-11-19T08:54:15;22.85;;;11.63;;
57047;SDS011;42934;54.294;18.598;2023-11-19T08:56:44;22.40;;;12.55;;
57047;SDS011;42934;54.294;18.598;2023-11-19T08:59:13;23.85;;;12.60;;
57047;SDS011;42934;54.294;18.598;2023-11-19T09:01:44;23.08;;;12.23;;
57047;SDS011;42934;54.294;18.598;2023-11-19T09:04:15;21.20;;;11.50;;
57047;SDS011;42934;54.294;18.598;2023-11-19T09:06:44;20.88;;;12.57;;
57047;SDS011;42934;54.294;18.598;2023-11-19T09:09:13;24.50;;;12.07;;
57047;SDS011;42934;54.294;18.598;2023-11-19T09:11:43;25.38;;;14.25;;
57047;SDS011;42934;54.294;18.598;2023-11-19T09:14:12;21.17;;;11.35;;
57047;SDS011;42934;54.294;18.598;2023-11-19T09:16:41;24.10;;;13.30;;
57047;SDS011;42934;54.294;18.598;2023-11-19T09:19:12;22.02;;;12.73;;
57047;SDS011;42934;54.294;18.598;2023-11-19T09:21:41;21.40;;;12.40;;
57047;SDS011;42934;54.294;18.598;2023-11-19T09:24:10;24.45;;;12.55;;
57047;SDS011;42934;54.294;18.598;2023-11-19T09:26:42;21.13;;;11.88;;
57047;SDS011;42934;54.294;18.598;2023-11-19T09:29:12;23.30;;;13.18;;
57047;SDS011;42934;54.294;18.598;2023-11-19T09:31:41;21.02;;;11.80;;
57047;SDS011;42934;54.294;18.598;2023-11-19T09:34:12;24.85;;;12.48;;
57047;SDS011;42934;54.294;18.598;2023-11-19T09:36:41;21.58;;;12.68;;
57047;SDS011;42934;54.294;18.598;2023-11-19T09:39:11;23.45;;;11.77;;
57047;SDS011;42934;54.294;18.598;2023-11-19T09:41:42;24.88;;;13.63;;
57047;SDS011;42934;54.294;18.598;2023-11-19T09:44:11;23.45;;;12.93;;
57047;SDS011;42934;54.294;18.598;2023-11-19T09:46:41;22.40;;;12.23;;
57047;SDS011;42934;54.294;18.598;2023-11-19T09:49:12;23.63;;;12.95;;
57047;SDS011;42934;54.294;18.598;2023-11-19T09:51:42;22.13;;;12.25;;
57047;SDS011;42934;54.294;18.598;2023-11-19T09:54:11;24.17;;;14.00;;
57047;SDS011;42934;54.294;18.598;2023-11-19T09:56:41;28.52;;;14.82;;
57047;SDS011;42934;54.294;18.598;2023-11-19T10:01:40;28.33;;;13.77;;
57047;SDS011;42934;54.294;18.598;2023-11-19T10:04:12;28.83;;;14.85;;
57047;SDS011;42934;54.294;18.598;2023-11-19T10:06:45;25.38;;;14.40;;
57047;SDS011;42934;54.294;18.598;2023-11-19T10:09:14;28.30;;;14.75;;
57047;SDS011;42934;54.294;18.598;2023-11-19T10:11:43;31.17;;;15.85;;
57047;SDS011;42934;54.294;18.598;2023-11-19T10:14:12;31.38;;;15.77;;
57047;SDS011;42934;54.294;18.598;2023-11-19T10:19:19;30.60;;;15.00;;
57047;SDS011;42934;54.294;18.598;2023-11-19T10:21:50;30.25;;;16.00;;
57047;SDS011;42934;54.294;18.598;2023-11-19T10:24:27;30.13;;;15.90;;
57047;SDS011;42934;54.294;18.598;2023-11-19T10:27:02;27.27;;;15.05;;
57047;SDS011;42934;54.294;18.598;2023-11-19T10:29:36;33.13;;;16.08;;
57047;SDS011;42934;54.294;18.598;2023-11-19T10:32:06;31.45;;;16.75;;
57047;SDS011;42934;54.294;18.598;2023-11-19T10:34:54;32.28;;;16.73;;
57047;SDS011;42934;54.294;18.598;2023-11-19T10:37:34;33.33;;;15.77;;
57047;SDS011;42934;54.294;18.598;2023-11-19T10:40:05;32.65;;;16.67;;
57047;SDS011;42934;54.294;18.598;2023-11-19T10:42:37;34.30;;;16.83;;
57047;SDS011;42934;54.294;18.598;2023-11-19T10:45:16;33.30;;;17.10;;
57047;SDS011;42934;54.294;18.598;2023-11-19T10:47:51;30.65;;;15.88;;
57047;SDS011;42934;54.294;18.598;2023-11-19T10:50:23;33.72;;;18.23;;
57047;SDS011;42934;54.294;18.598;2023-11-19T10:52:53;36.90;;;18.02;;
57047;SDS011;42934;54.294;18.598;2023-11-19T10:55:26;36.78;;;17.98;;
57047;SDS011;42934;54.294;18.598;2023-11-19T10:57:58;32.22;;;16.80;;
57047;SDS011;42934;54.294;18.598;2023-11-19T11:00:28;40.72;;;18.83;;
57047;SDS011;42934;54.294;18.598;2023-11-19T11:03:02;38.28;;;19.13;;
57047;SDS011;42934;54.294;18.598;2023-11-19T11:05:39;35.15;;;18.08;;
57047;SDS011;42934;54.294;18.598;2023-11-19T11:08:10;37.00;;;18.67;;
57047;SDS011;42934;54.294;18.598;2023-11-19T11:10:42;35.67;;;17.43;;
57047;SDS011;42934;54.294;18.598;2023-11-19T11:13:16;36.42;;;17.60;;
57047;SDS011;42934;54.294;18.598;2023-11-19T11:15:47;37.60;;;18.92;;
57047;SDS011;42934;54.294;18.598;2023-11-19T11:18:17;33.42;;;16.65;;
57047;SDS011;42934;54.294;18.598;2023-11-19T11:20:48;36.47;;;17.42;;
57047;SDS011;42934;54.294;18.598;2023-11-19T11:26:51;40.63;;;19.27;;
57047;SDS011;42934;54.294;18.598;2023-11-19T11:29:37;38.67;;;20.40;;
57047;SDS011;42934;54.294;18.598;2023-11-19T11:32:15;36.15;;;18.55;;
57047;SDS011;42934;54.294;18.598;2023-11-19T11:34:58;40.47;;;19.67;;
57047;SDS011;42934;54.294;18.598;2023-11-19T11:37:43;40.55;;;18.38;;
57047;SDS011;42934;54.294;18.598;2023-11-19T11:40:15;35.95;;;17.25;;
57047;SDS011;42934;54.294;18.598;2023-11-19T11:42:44;38.38;;;18.30;;
57047;SDS011;42934;54.294;18.598;2023-11-19T11:45:14;46.40;;;22.00;;
57047;SDS011;42934;54.294;18.598;2023-11-19T11:48:11;41.30;;;18.88;;
57047;SDS011;42934;54.294;18.598;2023-11-19T11:50:50;43.88;;;18.58;;
57047;SDS011;42934;54.294;18.598;2023-11-19T11:53:26;37.42;;;17.77;;
57047;SDS011;42934;54.294;18.598;2023-11-19T11:55:58;39.10;;;19.92;;
57047;SDS011;42934;54.294;18.598;2023-11-19T11:58:30;45.08;;;20.95;;
57047;SDS011;42934;54.294;18.598;2023-11-19T12:01:01;44.03;;;21.52;;
57047;SDS011;42934;54.294;18.598;2023-11-19T12:03:33;43.83;;;19.95;;
57047;SDS011;42934;54.294;18.598;2023-11-19T12:06:03;40.85;;;19.40;;
57047;SDS011;42934;54.294;18.598;2023-11-19T12:08:34;39.47;;;19.30;;
57047;SDS011;42934;54.294;18.598;2023-11-19T12:11:06;44.08;;;19.92;;
57047;SDS011;42934;54.294;18.598;2023-11-19T12:13:52;41.90;;;19.85;;
57047;SDS011;42934;54.294;18.598;2023-11-19T12:16:25;39.40;;;18.88;;
57047;SDS011;42934;54.294;18.598;2023-11-19T12:18:56;45.88;;;20.05;;
57047;SDS011;42934;54.294;18.598;2023-11-19T12:21:31;42.92;;;19.50;;
57047;SDS011;42934;54.294;18.598;2023-11-19T12:24:05;45.60;;;20.15;;
57047;SDS011;42934;54.294;18.598;2023-11-19T12:26:36;44.33;;;20.27;;
57047;SDS011;42934;54.294;18.598;2023-11-19T12:29:06;42.97;;;20.63;;
57047;SDS011;42934;54.294;18.598;2023-11-19T12:34:08;48.92;;;21.27;;
57047;SDS011;42934;54.294;18.598;2023-11-19T12:36:40;47.13;;;21.45;;
57047;SDS011;42934;54.294;18.598;2023-11-19T12:39:11;46.92;;;21.58;;
57047;SDS011;42934;54.294;18.598;2023-11-19T12:41:53;45.40;;;20.67;;
57047;SDS011;42934;54.294;18.598;2023-11-19T12:44:23;50.78;;;21.52;;
57047;SDS011;42934;54.294;18.598;2023-11-19T12:47:02;46.35;;;21.55;;
57047;SDS011;42934;54.294;18.598;2023-11-19T12:49:33;51.38;;;22.08;;
57047;SDS011;42934;54.294;18.598;2023-11-19T12:52:11;49.85;;;22.13;;
57047;SDS011;42934;54.294;18.598;2023-11-19T12:54:41;48.40;;;21.55;;
57047;SDS011;42934;54.294;18.598;2023-11-19T12:57:11;48.10;;;22.02;;
57047;SDS011;42934;54.294;18.598;2023-11-19T12:59:40;50.95;;;22.50;;
57047;SDS011;42934;54.294;18.598;2023-11-19T13:02:10;52.55;;;23.90;;
57047;SDS011;42934;54.294;18.598;2023-11-19T13:04:39;54.72;;;23.38;;
57047;SDS011;42934;54.294;18.598;2023-11-19T13:07:08;55.05;;;23.60;;
57047;SDS011;42934;54.294;18.598;2023-11-19T13:09:37;51.63;;;22.77;;
57047;SDS011;42934;54.294;18.598;2023-11-19T13:12:14;47.05;;;21.55;;
57047;SDS011;42934;54.294;18.598;2023-11-19T13:14:44;49.72;;;22.30;;
57047;SDS011;42934;54.294;18.598;2023-11-19T13:17:14;47.60;;;22.27;;
57047;SDS011;42934;54.294;18.598;2023-11-19T13:19:43;49.80;;;23.08;;
57047;SDS011;42934;54.294;18.598;2023-11-19T13:22:15;50.20;;;23.45;;
57047;SDS011;42934;54.294;18.598;2023-11-19T13:24:44;52.92;;;23.15;;
57047;SDS011;42934;54.294;18.598;2023-11-19T13:27:14;45.67;;;22.05;;
57047;SDS011;42934;54.294;18.598;2023-11-19T13:29:44;51.63;;;22.77;;
57047;SDS011;42934;54.294;18.598;2023-11-19T13:32:13;53.25;;;23.00;;
57047;SDS011;42934;54.294;18.598;2023-11-19T13:34:42;53.80;;;24.80;;
57047;SDS011;42934;54.294;18.598;2023-11-19T13:37:11;51.42;;;24.60;;
57047;SDS011;42934;54.294;18.598;2023-11-19T13:39:41;50.03;;;22.10;;
57047;SDS011;42934;54.294;18.598;2023-11-19T13:42:11;48.63;;;22.02;;
57047;SDS011;42934;54.294;18.598;2023-11-19T13:44:42;48.92;;;22.70;;
57047;SDS011;42934;54.294;18.598;2023-11-19T13:47:11;46.05;;;21.35;;
57047;SDS011;42934;54.294;18.598;2023-11-19T13:49:40;47.97;;;21.98;;
57047;SDS011;42934;54.294;18.598;2023-11-19T13:52:09;53.10;;;23.08;;
57047;SDS011;42934;54.294;18.598;2023-11-19T13:54:39;51.27;;;23.10;;
57047;SDS011;42934;54.294;18.598;2023-11-19T13:57:08;45.45;;;22.17;;
57047;SDS011;42934;54.294;18.598;2023-11-19T13:59:39;50.60;;;23.00;;
57047;SDS011;42934;54.294;18.598;2023-11-19T14:02:10;48.95;;;23.27;;
57047;SDS011;42934;54.294;18.598;2023-11-19T14:04:39;52.13;;;22.92;;
57047;SDS011;42934;54.294;18.598;2023-11-19T14:07:08;55.30;;;24.87;;
57047;SDS011;42934;54.294;18.598;2023-11-19T14:09:37;50.08;;;23.60;;
57047;SDS011;42934;54.294;18.598;2023-11-19T14:12:08;51.80;;;22.40;;
57047;SDS011;42934;54.294;18.598;2023-11-19T14:14:39;46.97;;;21.95;;
57047;SDS011;42934;54.294;18.598;2023-11-19T14:17:10;49.42;;;23.40;;
57047;SDS011;42934;54.294;18.598;2023-11-19T14:19:40;47.25;;;21.13;;
57047;SDS011;42934;54.294;18.598;2023-11-19T14:24:39;49.05;;;20.75;;
57047;SDS011;42934;54.294;18.598;2023-11-19T14:27:10;44.30;;;20.05;;
57047;SDS011;42934;54.294;18.598;2023-11-19T14:29:39;47.47;;;20.73;;
57047;SDS011;42934;54.294;18.598;2023-11-19T14:32:10;51.90;;;20.55;;
57047;SDS011;42934;54.294;18.598;2023-11-19T14:34:39;43.50;;;20.73;;
57047;SDS011;42934;54.294;18.598;2023-11-19T14:37:09;47.65;;;23.00;;
57047;SDS011;42934;54.294;18.598;2023-11-19T14:39:38;47.75;;;22.73;;
57047;SDS011;42934;54.294;18.598;2023-11-19T14:42:07;48.92;;;22.25;;
57047;SDS011;42934;54.294;18.598;2023-11-19T14:44:37;51.35;;;22.48;;
57047;SDS011;42934;54.294;18.598;2023-11-19T14:47:07;48.72;;;21.55;;
57047;SDS011;42934;54.294;18.598;2023-11-19T14:49:37;51.85;;;23.67;;
57047;SDS011;42934;54.294;18.598;2023-11-19T14:52:06;49.55;;;21.85;;
57047;SDS011;42934;54.294;18.598;2023-11-19T14:54:38;48.83;;;21.50;;
57047;SDS011;42934;54.294;18.598;2023-11-19T14:57:07;42.70;;;19.83;;
57047;SDS011;42934;54.294;18.598;2023-11-19T14:59:36;43.17;;;20.65;;